Time;durP1;ratioP1;P1;durP2;ratioP2;P2;SDS_P1;SDS_P2;PMS_P1;PMS_P2;Temp;Humidity;BMP_temperature;BMP_pressure;BME280_temperature;BME280_humidity;BME280_pressure;Samples;Min_cycle;Max_cycle;Signal;HPM_P1;HPM_P2
2023/07/14 00:01:16;;;;;;;3.07;2.30;;;;;;;;;;5046516;28;20232;-66
2023/07/14 00:03:45;;;;;;;4.80;3.03;;;;;;;;;;5051163;28;20621;-66
2023/07/14 00:06:13;;;;;;;3.00;1.97;;;;;;;;;;5039080;28;20296;-64
2023/07/14 00:08:41;;;;;;;3.40;2.43;;;;;;;;;;5039152;28;20213;-66
2023/07/14 00:11:13;;;;;;;5.77;2.40;;;;;;;;;;5038894;28;20233;-65
2023/07/14 00:13:41;;;;;;;3.47;2.03;;;;;;;;;;5038844;28;20263;-66
2023/07/14 00:16:13;;;;;;;3.67;2.00;;;;;;;;;;5038850;28;20625;-66
2023/07/14 00:18:41;;;;;;;4.17;1.93;;;;;;;;;;5038582;28;20204;-66
2023/07/14 00:21:15;;;;;;;2.83;2.27;;;;;;;;;;5038487;28;20340;-66
2023/07/14 00:23:43;;;;;;;2.00;1.90;;;;;;;;;;5048694;28;20539;-66
2023/07/14 00:26:14;;;;;;;4.90;2.80;;;;;;;;;;5041883;28;20208;-66
2023/07/14 00:28:42;;;;;;;3.73;2.60;;;;;;;;;;5038421;28;20656;-66
2023/07/14 00:31:12;;;;;;;3.43;2.07;;;;;;;;;;5038746;28;20237;-66
2023/07/14 00:33:41;;;;;;;3.17;2.00;;;;;;;;;;5038411;28;20249;-66
2023/07/14 00:36:09;;;;;;;1.70;1.60;;;;;;;;;;5043549;28;20199;-66
2023/07/14 00:38:38;;;;;;;3.30;2.10;;;;;;;;;;5045029;28;20215;-66
2023/07/14 00:41:10;;;;;;;4.33;2.27;;;;;;;;;;5044057;28;20239;-66
2023/07/14 00:43:38;;;;;;;2.90;2.13;;;;;;;;;;5038341;28;20738;-66
2023/07/14 00:46:06;;;;;;;2.00;1.43;;;;;;;;;;5038662;28;20212;-66
2023/07/14 00:48:34;;;;;;;5.83;1.57;;;;;;;;;;5038359;28;20617;-66
2023/07/14 00:51:04;;;;;;;1.63;1.50;;;;;;;;;;5038174;28;20228;-66
2023/07/14 00:53:33;;;;;;;3.23;1.60;;;;;;;;;;5038498;28;20697;-66
2023/07/14 00:56:19;;;;;;;2.17;1.57;;;;;;;;;;5045193;28;20261;-66
2023/07/14 00:58:49;;;;;;;3.70;1.60;;;;;;;;;;5038861;28;20221;-66
2023/07/14 01:01:21;;;;;;;2.33;1.53;;;;;;;;;;5044374;28;20231;-66
2023/07/14 01:03:51;;;;;;;2.03;1.50;;;;;;;;;;5038345;28;20214;-66
2023/07/14 01:06:21;;;;;;;1.83;1.60;;;;;;;;;;5038294;28;20725;-66
2023/07/14 01:08:53;;;;;;;7.50;2.10;;;;;;;;;;5038236;28;21085;-66
2023/07/14 01:11:23;;;;;;;2.97;1.77;;;;;;;;;;5038196;28;20227;-66
2023/07/14 01:13:51;;;;;;;3.20;1.40;;;;;;;;;;5037867;28;20215;-66
2023/07/14 01:16:19;;;;;;;4.93;1.70;;;;;;;;;;5037981;28;20218;-66
2023/07/14 01:18:48;;;;;;;2.83;1.90;;;;;;;;;;5037972;28;20574;-66
2023/07/14 01:21:17;;;;;;;2.30;1.73;;;;;;;;;;5037508;28;20314;-66
2023/07/14 01:23:50;;;;;;;2.83;1.90;;;;;;;;;;5047976;28;20206;-66
2023/07/14 01:26:25;;;;;;;3.10;1.63;;;;;;;;;;5039718;28;20274;-66
2023/07/14 01:28:55;;;;;;;3.47;1.70;;;;;;;;;;5037653;28;20695;-66
2023/07/14 01:31:24;;;;;;;2.50;1.97;;;;;;;;;;5037829;28;20234;-66
2023/07/14 01:33:56;;;;;;;5.17;1.60;;;;;;;;;;5037423;28;20310;-66
2023/07/14 01:36:25;;;;;;;2.33;1.87;;;;;;;;;;5037486;28;20230;-66
2023/07/14 01:38:53;;;;;;;1.83;1.60;;;;;;;;;;5037493;28;20644;-66
2023/07/14 01:41:21;;;;;;;1.60;1.50;;;;;;;;;;5044375;28;20223;-66
2023/07/14 01:43:49;;;;;;;2.07;1.60;;;;;;;;;;5037266;28;20295;-66
2023/07/14 01:46:19;;;;;;;3.77;1.87;;;;;;;;;;5037801;28;20211;-66
2023/07/14 01:48:52;;;;;;;2.83;1.70;;;;;;;;;;5037451;28;20269;-66
2023/07/14 01:51:20;;;;;;;4.63;2.10;;;;;;;;;;5037559;28;20230;-66
2023/07/14 01:53:58;;;;;;;4.53;1.40;;;;;;;;;;5037399;28;20224;-66
2023/07/14 01:56:27;;;;;;;3.43;1.80;;;;;;;;;;5037689;28;20648;-66
2023/07/14 01:58:57;;;;;;;5.47;2.27;;;;;;;;;;5039004;28;20567;-66
2023/07/14 02:01:27;;;;;;;2.63;1.70;;;;;;;;;;5043864;28;20227;-66
2023/07/14 02:03:56;;;;;;;4.07;2.37;;;;;;;;;;5037651;28;20207;-66
2023/07/14 02:06:25;;;;;;;2.63;1.50;;;;;;;;;;5037120;28;20207;-66
2023/07/14 02:08:52;;;;;;;7.67;3.10;;;;;;;;;;5037359;28;20648;-66
2023/07/14 02:11:22;;;;;;;3.97;1.57;;;;;;;;;;5037199;28;20595;-66
2023/07/14 02:13:51;;;;;;;3.60;1.67;;;;;;;;;;5037246;28;20682;-66
2023/07/14 02:16:19;;;;;;;1.93;1.80;;;;;;;;;;5037262;28;20703;-66
2023/07/14 02:18:49;;;;;;;2.13;1.90;;;;;;;;;;5037263;28;20669;-66
2023/07/14 02:21:21;;;;;;;3.07;1.90;;;;;;;;;;5037231;28;20239;-66
2023/07/14 02:23:50;;;;;;;3.23;2.53;;;;;;;;;;5048037;28;20306;-66
2023/07/14 02:26:23;;;;;;;4.10;1.40;;;;;;;;;;5039327;28;20203;-66
2023/07/14 02:28:51;;;;;;;2.47;1.70;;;;;;;;;;5037142;28;20213;-66
2023/07/14 02:31:21;;;;;;;3.23;1.57;;;;;;;;;;5037015;28;20788;-65
2023/07/14 02:33:52;;;;;;;3.47;1.57;;;;;;;;;;5037070;28;20235;-65
2023/07/14 02:36:24;;;;;;;3.13;1.90;;;;;;;;;;5037300;28;20321;-66
2023/07/14 02:38:55;;;;;;;2.30;1.60;;;;;;;;;;5042115;28;20615;-66
2023/07/14 02:41:24;;;;;;;2.30;1.80;;;;;;;;;;5048996;28;20223;-65
2023/07/14 02:43:55;;;;;;;10.30;1.43;;;;;;;;;;5039843;28;20233;-66
2023/07/14 02:46:24;;;;;;;2.37;1.60;;;;;;;;;;5040577;28;20203;-66
2023/07/14 02:48:53;;;;;;;2.20;2.00;;;;;;;;;;5041001;28;20226;-66
2023/07/14 02:51:21;;;;;;;3.90;2.60;;;;;;;;;;5040460;28;20234;-66
2023/07/14 02:53:49;;;;;;;4.33;1.90;;;;;;;;;;5040817;28;20213;-65
2023/07/14 02:56:17;;;;;;;1.37;1.23;;;;;;;;;;5053560;28;20229;-66
2023/07/14 02:58:49;;;;;;;3.47;1.40;;;;;;;;;;5041454;28;20208;-66
2023/07/14 03:01:18;;;;;;;1.57;1.47;;;;;;;;;;5040601;28;20228;-65
2023/07/14 03:03:47;;;;;;;3.20;1.67;;;;;;;;;;5040531;28;20212;-65
2023/07/14 03:06:18;;;;;;;3.67;2.40;;;;;;;;;;5040166;28;20204;-66
2023/07/14 03:08:46;;;;;;;4.73;2.40;;;;;;;;;;5040198;28;20224;-65
2023/07/14 03:11:14;;;;;;;5.07;2.90;;;;;;;;;;5040499;28;20236;-65
2023/07/14 03:13:43;;;;;;;4.87;2.97;;;;;;;;;;5039866;28;20553;-66
2023/07/14 03:16:11;;;;;;;5.07;3.30;;;;;;;;;;5040285;28;20234;-66
2023/07/14 03:18:39;;;;;;;5.50;2.90;;;;;;;;;;5039955;28;20282;-66
2023/07/14 03:21:06;;;;;;;4.80;2.60;;;;;;;;;;5039821;28;20236;-65
2023/07/14 03:23:35;;;;;;;4.40;3.20;;;;;;;;;;5048747;28;20254;-66
2023/07/14 03:26:05;;;;;;;3.40;3.00;;;;;;;;;;5043963;28;20203;-65
2023/07/14 03:28:34;;;;;;;5.50;2.70;;;;;;;;;;5039611;28;20218;-66
2023/07/14 03:31:02;;;;;;;5.80;2.50;;;;;;;;;;5039728;28;20616;-65
2023/07/14 03:33:30;;;;;;;4.30;3.00;;;;;;;;;;5039824;28;20329;-65
2023/07/14 03:36:01;;;;;;;7.23;2.83;;;;;;;;;;5039935;28;20588;-66
2023/07/14 03:38:28;;;;;;;4.50;2.83;;;;;;;;;;5039684;28;20637;-66
2023/07/14 03:40:57;;;;;;;4.50;2.67;;;;;;;;;;5045745;28;20225;-66
2023/07/14 03:43:25;;;;;;;5.07;2.10;;;;;;;;;;5039326;28;20293;-66
2023/07/14 03:45:53;;;;;;;4.27;1.60;;;;;;;;;;5039764;28;20371;-66
2023/07/14 03:48:21;;;;;;;4.10;1.93;;;;;;;;;;5039818;28;20220;-65
2023/07/14 03:50:48;;;;;;;2.60;1.60;;;;;;;;;;5046324;28;20229;-65
2023/07/14 03:53:16;;;;;;;4.37;1.50;;;;;;;;;;5059055;28;20213;-66
2023/07/14 03:55:44;;;;;;;1.63;1.23;;;;;;;;;;5051434;28;20666;-65
2023/07/14 03:58:13;;;;;;;2.17;1.50;;;;;;;;;;5039235;28;20666;-65
2023/07/14 04:00:41;;;;;;;3.30;1.40;;;;;;;;;;5048027;28;20321;-66
2023/07/14 04:03:09;;;;;;;2.00;1.37;;;;;;;;;;5039313;28;20212;-65
2023/07/14 04:05:37;;;;;;;1.47;1.20;;;;;;;;;;5039425;28;20206;-65
2023/07/14 04:08:05;;;;;;;1.57;1.20;;;;;;;;;;5039149;28;20208;-65
2023/07/14 04:10:33;;;;;;;2.70;1.00;;;;;;;;;;5039220;28;20255;-65
2023/07/14 04:13:00;;;;;;;1.53;1.10;;;;;;;;;;5038969;28;20222;-65
2023/07/14 04:15:30;;;;;;;2.43;1.40;;;;;;;;;;5039064;28;20206;-66
2023/07/14 04:17:57;;;;;;;2.23;1.33;;;;;;;;;;5038879;28;20210;-65
2023/07/14 04:20:25;;;;;;;3.90;1.20;;;;;;;;;;5039040;28;20274;-65
2023/07/14 04:22:53;;;;;;;1.67;1.23;;;;;;;;;;5042012;28;20204;-66
2023/07/14 04:25:21;;;;;;;1.37;1.03;;;;;;;;;;5048825;28;20714;-65
2023/07/14 04:27:49;;;;;;;3.37;2.40;;;;;;;;;;5038444;28;20232;-65
2023/07/14 04:30:17;;;;;;;4.00;2.43;;;;;;;;;;5038999;28;20660;-65
2023/07/14 04:32:46;;;;;;;3.50;2.40;;;;;;;;;;5038645;28;20264;-65
2023/07/14 04:35:13;;;;;;;3.63;2.13;;;;;;;;;;5038549;28;20263;-65
2023/07/14 04:37:41;;;;;;;5.47;1.80;;;;;;;;;;5041376;28;20285;-65
2023/07/14 04:40:10;;;;;;;1.70;1.40;;;;;;;;;;5045894;28;20253;-65
2023/07/14 04:42:56;;;;;;;2.20;1.17;;;;;;;;;;5038493;28;20203;-65
2023/07/14 04:45:24;;;;;;;2.87;1.30;;;;;;;;;;5038593;28;20296;-66
2023/07/14 04:47:54;;;;;;;2.47;1.40;;;;;;;;;;5041703;28;20266;-67
2023/07/14 04:50:21;;;;;;;1.93;1.40;;;;;;;;;;5048254;28;20233;-67
2023/07/14 04:52:49;;;;;;;2.30;1.30;;;;;;;;;;5040911;28;20230;-67
2023/07/14 04:55:17;;;;;;;1.30;1.20;;;;;;;;;;5051248;28;20207;-67
2023/07/14 04:57:46;;;;;;;2.80;1.13;;;;;;;;;;5061026;28;20262;-67
2023/07/14 05:00:17;;;;;;;2.03;1.50;;;;;;;;;;5061124;28;20262;-67
2023/07/14 05:02:45;;;;;;;2.70;1.43;;;;;;;;;;5064572;28;20211;-67
2023/07/14 05:05:15;;;;;;;2.73;1.40;;;;;;;;;;5066233;28;20207;-67
2023/07/14 05:07:43;;;;;;;6.30;1.60;;;;;;;;;;5064148;28;20211;-66
2023/07/14 05:10:11;;;;;;;1.57;1.10;;;;;;;;;;5046471;28;20258;-67
2023/07/14 05:12:39;;;;;;;1.43;1.00;;;;;;;;;;5046763;28;20261;-66
2023/07/14 05:15:10;;;;;;;0.80;0.80;;;;;;;;;;5048383;28;20293;-66
2023/07/14 05:17:38;;;;;;;3.07;1.00;;;;;;;;;;5048645;28;20226;-65
2023/07/14 05:20:07;;;;;;;3.07;1.30;;;;;;;;;;5046359;28;20278;-66
2023/07/14 05:22:36;;;;;;;1.27;1.07;;;;;;;;;;5056515;28;20577;-65
2023/07/14 05:25:04;;;;;;;3.10;1.40;;;;;;;;;;5064212;28;20334;-66
2023/07/14 05:27:32;;;;;;;1.10;1.00;;;;;;;;;;5067212;28;20230;-66
2023/07/14 05:30:00;;;;;;;4.07;2.60;;;;;;;;;;5063253;28;20219;-66
2023/07/14 05:32:28;;;;;;;1.73;1.10;;;;;;;;;;5060006;28;20230;-66
2023/07/14 05:34:56;;;;;;;3.37;1.50;;;;;;;;;;5067790;28;20204;-66
2023/07/14 05:37:23;;;;;;;2.03;1.30;;;;;;;;;;5066396;28;20227;-66
2023/07/14 05:39:53;;;;;;;2.43;1.10;;;;;;;;;;5063544;28;20283;-66
2023/07/14 05:42:20;;;;;;;1.40;1.27;;;;;;;;;;5058117;28;20202;-66
2023/07/14 05:44:48;;;;;;;2.37;1.73;;;;;;;;;;5063789;28;20206;-66
2023/07/14 05:47:16;;;;;;;2.50;1.30;;;;;;;;;;5067063;28;20198;-66
2023/07/14 05:49:55;;;;;;;2.27;1.10;;;;;;;;;;5066123;28;20199;-67
2023/07/14 05:52:36;;;;;;;2.70;1.23;;;;;;;;;;5064465;28;20201;-66
2023/07/14 05:55:13;;;;;;;6.87;2.00;;;;;;;;;;5065942;28;20221;-67
2023/07/14 05:57:41;;;;;;;4.57;1.97;;;;;;;;;;5065759;28;20222;-67
2023/07/14 06:00:13;;;;;;;4.40;2.20;;;;;;;;;;5061941;28;20289;-67
2023/07/14 06:02:41;;;;;;;4.83;2.30;;;;;;;;;;5065863;28;20201;-67
2023/07/14 06:05:10;;;;;;;8.20;2.40;;;;;;;;;;5060584;28;20294;-67
2023/07/14 06:07:38;;;;;;;3.90;2.17;;;;;;;;;;5064624;28;20276;-65
2023/07/14 06:10:06;;;;;;;2.77;1.80;;;;;;;;;;5063420;28;20229;-65
2023/07/14 06:12:35;;;;;;;2.63;1.83;;;;;;;;;;5066693;28;20562;-66
2023/07/14 06:15:04;;;;;;;3.57;1.90;;;;;;;;;;5063892;28;20261;-65
2023/07/14 06:17:31;;;;;;;5.93;1.63;;;;;;;;;;5065515;28;20302;-65
2023/07/14 06:19:59;;;;;;;2.57;1.60;;;;;;;;;;5071457;28;20218;-65
2023/07/14 06:22:27;;;;;;;3.47;1.70;;;;;;;;;;5068150;28;20203;-63
2023/07/14 06:24:55;;;;;;;2.23;1.57;;;;;;;;;;5067806;28;20227;-63
2023/07/14 06:27:24;;;;;;;2.83;1.60;;;;;;;;;;5070372;28;20267;-65
2023/07/14 06:29:53;;;;;;;2.17;1.60;;;;;;;;;;5058302;28;20701;-63
2023/07/14 06:32:21;;;;;;;3.53;1.30;;;;;;;;;;5068995;28;20202;-64
2023/07/14 06:34:48;;;;;;;1.30;1.20;;;;;;;;;;5069120;28;20202;-63
2023/07/14 06:37:16;;;;;;;1.53;1.43;;;;;;;;;;5063903;28;20585;-64
2023/07/14 06:39:44;;;;;;;3.03;1.50;;;;;;;;;;5042488;28;20250;-66
2023/07/14 06:42:12;;;;;;;2.03;1.33;;;;;;;;;;5043339;28;20582;-65
2023/07/14 06:44:40;;;;;;;2.63;1.57;;;;;;;;;;5040898;28;20211;-66
2023/07/14 06:47:09;;;;;;;1.53;1.43;;;;;;;;;;5040582;28;20206;-63
2023/07/14 06:49:37;;;;;;;2.40;1.43;;;;;;;;;;5040747;28;20211;-66
2023/07/14 06:52:05;;;;;;;3.57;1.07;;;;;;;;;;5057195;28;20241;-66
2023/07/14 06:54:35;;;;;;;2.03;1.50;;;;;;;;;;5045746;28;20237;-66
2023/07/14 06:57:03;;;;;;;5.40;1.60;;;;;;;;;;5060527;28;20215;-66
2023/07/14 06:59:30;;;;;;;4.10;1.43;;;;;;;;;;5060264;28;20212;-66
2023/07/14 07:01:58;;;;;;;2.20;1.20;;;;;;;;;;5040695;28;20273;-64
2023/07/14 07:04:27;;;;;;;6.80;1.90;;;;;;;;;;5040524;28;20212;-64
2023/07/14 07:06:55;;;;;;;3.60;1.70;;;;;;;;;;5049860;28;20214;-65
2023/07/14 07:09:23;;;;;;;2.33;1.40;;;;;;;;;;5043752;28;20239;-65
2023/07/14 07:11:50;;;;;;;1.83;1.23;;;;;;;;;;5040380;28;20295;-65
2023/07/14 07:14:18;;;;;;;3.23;1.70;;;;;;;;;;5054928;28;20295;-65
2023/07/14 07:16:46;;;;;;;3.03;1.27;;;;;;;;;;5065344;28;20599;-65
2023/07/14 07:19:14;;;;;;;2.40;1.57;;;;;;;;;;5043029;28;20224;-65
2023/07/14 07:21:43;;;;;;;2.27;1.33;;;;;;;;;;5040095;28;20302;-65
2023/07/14 07:24:11;;;;;;;1.63;1.50;;;;;;;;;;5040160;28;20646;-66
2023/07/14 07:26:38;;;;;;;2.00;1.60;;;;;;;;;;5040293;28;20215;-65
2023/07/14 07:29:08;;;;;;;4.10;1.73;;;;;;;;;;5039418;28;20234;-65
2023/07/14 07:31:36;;;;;;;3.57;1.63;;;;;;;;;;5044171;28;20686;-65
2023/07/14 07:34:05;;;;;;;3.23;1.40;;;;;;;;;;5057640;28;20230;-64
2023/07/14 07:36:33;;;;;;;4.80;1.70;;;;;;;;;;5056797;28;20207;-65
2023/07/14 07:39:02;;;;;;;2.83;1.60;;;;;;;;;;5039671;28;20233;-65
2023/07/14 07:41:30;;;;;;;2.63;1.33;;;;;;;;;;5055541;28;20322;-65
2023/07/14 07:43:58;;;;;;;2.50;1.70;;;;;;;;;;5039364;28;20215;-65
2023/07/14 07:46:27;;;;;;;2.73;1.50;;;;;;;;;;5039484;28;20219;-65
2023/07/14 07:48:55;;;;;;;3.87;1.50;;;;;;;;;;5044741;28;20198;-65
2023/07/14 07:51:23;;;;;;;3.23;1.77;;;;;;;;;;5044355;28;20590;-65
2023/07/14 07:53:53;;;;;;;6.07;1.80;;;;;;;;;;5039358;28;20214;-65
2023/07/14 07:56:22;;;;;;;4.43;1.83;;;;;;;;;;5043281;28;20215;-65
2023/07/14 07:58:50;;;;;;;3.20;1.90;;;;;;;;;;5049037;28;20231;-64
2023/07/14 08:01:19;;;;;;;5.67;1.87;;;;;;;;;;5042752;28;20236;-65
2023/07/14 08:03:48;;;;;;;5.87;1.83;;;;;;;;;;5038930;28;20237;-63
2023/07/14 08:06:16;;;;;;;3.93;1.73;;;;;;;;;;5042740;28;20276;-65
2023/07/14 08:08:44;;;;;;;2.27;1.87;;;;;;;;;;5048605;28;20237;-64
2023/07/14 08:11:12;;;;;;;3.57;1.63;;;;;;;;;;5038923;28;20262;-65
2023/07/14 08:13:42;;;;;;;3.90;1.57;;;;;;;;;;5038687;28;20221;-65
2023/07/14 08:16:10;;;;;;;6.47;1.73;;;;;;;;;;5038710;28;20752;-65
2023/07/14 08:18:39;;;;;;;3.37;1.53;;;;;;;;;;5038784;28;20227;-65
2023/07/14 08:21:06;;;;;;;2.43;1.67;;;;;;;;;;5038457;28;20671;-65
2023/07/14 08:23:36;;;;;;;3.57;2.00;;;;;;;;;;5038857;28;20237;-65
2023/07/14 08:26:05;;;;;;;2.53;1.40;;;;;;;;;;5042671;28;20231;-65
2023/07/14 08:28:33;;;;;;;4.87;1.80;;;;;;;;;;5038317;28;20246;-65
2023/07/14 08:31:06;;;;;;;2.47;1.33;;;;;;;;;;5043247;28;20246;-65
2023/07/14 08:33:34;;;;;;;2.13;1.87;;;;;;;;;;5058568;28;20262;-65
2023/07/14 08:36:03;;;;;;;4.97;1.53;;;;;;;;;;5058222;28;20731;-65
2023/07/14 08:38:31;;;;;;;6.53;1.90;;;;;;;;;;5057315;28;20254;-65
2023/07/14 08:41:04;;;;;;;2.90;1.60;;;;;;;;;;5051689;28;20230;-65
2023/07/14 08:43:37;;;;;;;1.80;1.70;;;;;;;;;;5038071;28;20306;-65
2023/07/14 08:46:09;;;;;;;5.13;1.83;;;;;;;;;;5038612;28;20217;-65
2023/07/14 08:48:39;;;;;;;3.50;1.47;;;;;;;;;;5038768;28;20200;-65
2023/07/14 08:51:16;;;;;;;3.83;1.53;;;;;;;;;;5038180;28;20229;-65
2023/07/14 08:53:47;;;;;;;2.13;1.80;;;;;;;;;;5044047;28;20208;-65
2023/07/14 08:56:16;;;;;;;4.03;1.53;;;;;;;;;;5042626;28;20220;-65
2023/07/14 08:58:44;;;;;;;3.57;1.60;;;;;;;;;;5038764;28;20240;-65
2023/07/14 09:01:20;;;;;;;3.40;1.70;;;;;;;;;;5041812;28;20317;-66
2023/07/14 09:03:51;;;;;;;3.43;1.53;;;;;;;;;;5038409;28;20215;-66
2023/07/14 09:06:25;;;;;;;2.30;1.80;;;;;;;;;;5038211;28;20219;-65
2023/07/14 09:08:54;;;;;;;1.80;1.50;;;;;;;;;;5038196;28;20708;-66
2023/07/14 09:11:34;;;;;;;5.07;1.57;;;;;;;;;;5044669;28;20234;-65
2023/07/14 09:14:06;;;;;;;4.67;1.50;;;;;;;;;;5057547;28;20213;-63
2023/07/14 09:16:38;;;;;;;3.17;1.90;;;;;;;;;;5057846;28;20236;-64
2023/07/14 09:19:11;;;;;;;2.83;1.57;;;;;;;;;;5057940;28;20233;-62
2023/07/14 09:21:44;;;;;;;3.57;1.30;;;;;;;;;;5057651;28;20770;-62
2023/07/14 09:24:15;;;;;;;2.30;1.60;;;;;;;;;;5058015;28;20209;-61
2023/07/14 09:26:44;;;;;;;4.07;1.73;;;;;;;;;;5057666;28;20210;-62
2023/07/14 09:29:16;;;;;;;1.67;1.40;;;;;;;;;;5057370;28;20269;-61
2023/07/14 09:31:49;;;;;;;2.10;1.20;;;;;;;;;;5057492;28;20224;-62
2023/07/14 09:34:22;;;;;;;4.13;1.60;;;;;;;;;;5057203;28;20246;-61
2023/07/14 09:36:50;;;;;;;3.40;1.60;;;;;;;;;;5057744;28;20213;-61
2023/07/14 09:39:21;;;;;;;3.30;1.40;;;;;;;;;;5057642;28;20764;-61
2023/07/14 09:41:52;;;;;;;2.13;1.43;;;;;;;;;;5044238;28;20585;-62
2023/07/14 09:44:21;;;;;;;1.60;1.50;;;;;;;;;;5044440;28;20205;-61
2023/07/14 09:46:50;;;;;;;2.53;1.70;;;;;;;;;;5057554;28;20211;-62
2023/07/14 09:49:23;;;;;;;5.03;1.60;;;;;;;;;;5057645;28;20217;-61
2023/07/14 09:52:00;;;;;;;2.33;1.37;;;;;;;;;;5057488;28;20732;-62
2023/07/14 09:54:28;;;;;;;4.77;1.57;;;;;;;;;;5061727;28;20221;-62
2023/07/14 09:57:01;;;;;;;6.07;1.60;;;;;;;;;;5061712;28;20241;-61
2023/07/14 09:59:29;;;;;;;3.63;1.77;;;;;;;;;;5060997;28;20231;-61
2023/07/14 10:02:00;;;;;;;4.77;1.80;;;;;;;;;;5043452;28;20204;-61
2023/07/14 10:04:29;;;;;;;2.30;1.50;;;;;;;;;;5041492;28;20289;-61
2023/07/14 10:07:21;;;;;;;1.80;1.57;;;;;;;;;;5041433;28;20235;-61
2023/07/14 10:09:57;;;;;;;5.73;3.43;;;;;;;;;;5041523;28;20226;-62
2023/07/14 10:12:24;;;;;;;2.43;1.80;;;;;;;;;;5041322;28;20214;-61
2023/07/14 10:14:53;;;;;;;2.27;1.70;;;;;;;;;;5041366;28;20216;-61
2023/07/14 10:17:26;;;;;;;2.57;1.50;;;;;;;;;;5041525;28;20225;-61
2023/07/14 10:19:57;;;;;;;2.53;1.70;;;;;;;;;;5041242;28;20229;-61
2023/07/14 10:22:25;;;;;;;1.83;1.33;;;;;;;;;;5041238;28;20241;-61
2023/07/14 10:24:56;;;;;;;3.33;1.50;;;;;;;;;;5041295;28;20727;-61
2023/07/14 10:27:26;;;;;;;3.23;1.47;;;;;;;;;;5040995;28;20215;-61
2023/07/14 10:30:07;;;;;;;1.80;1.60;;;;;;;;;;5041220;28;20221;-61
2023/07/14 10:32:40;;;;;;;3.27;1.60;;;;;;;;;;5057759;28;20229;-61
2023/07/14 10:35:13;;;;;;;1.80;1.70;;;;;;;;;;5060851;28;20286;-61
2023/07/14 10:37:43;;;;;;;1.40;1.20;;;;;;;;;;5060666;28;20243;-62
2023/07/14 10:40:14;;;;;;;2.33;1.20;;;;;;;;;;5060839;28;20677;-61
2023/07/14 10:42:52;;;;;;;2.57;1.70;;;;;;;;;;5040860;28;20243;-63
2023/07/14 10:45:20;;;;;;;1.73;1.40;;;;;;;;;;5040907;28;20214;-61
2023/07/14 10:47:52;;;;;;;2.83;1.53;;;;;;;;;;5040624;28;20621;-62
2023/07/14 10:50:23;;;;;;;3.80;1.70;;;;;;;;;;5040485;28;20233;-61
2023/07/14 10:52:52;;;;;;;2.67;1.47;;;;;;;;;;5040734;28;20270;-62
2023/07/14 10:55:21;;;;;;;1.37;1.27;;;;;;;;;;5052250;28;20293;-61
2023/07/14 10:57:50;;;;;;;1.63;1.53;;;;;;;;;;5040303;28;20765;-61
2023/07/14 11:00:26;;;;;;;1.80;1.67;;;;;;;;;;5052232;28;20238;-62
2023/07/14 11:02:59;;;;;;;1.63;1.53;;;;;;;;;;5040399;28;20253;-61
2023/07/14 11:05:28;;;;;;;1.87;1.53;;;;;;;;;;5040279;28;20207;-61
2023/07/14 11:07:56;;;;;;;3.80;1.43;;;;;;;;;;5040217;28;20741;-61
2023/07/14 11:10:29;;;;;;;4.57;1.33;;;;;;;;;;5040113;28;20221;-62
2023/07/14 11:12:59;;;;;;;3.97;1.40;;;;;;;;;;5040090;28;20207;-61
2023/07/14 11:15:37;;;;;;;1.30;1.20;;;;;;;;;;5040474;28;20215;-61
2023/07/14 11:18:13;;;;;;;1.88;1.10;;;;;;;;;;5040256;28;20222;-61
2023/07/14 11:20:43;;;;;;;1.33;1.20;;;;;;;;;;5039899;28;20237;-61
2023/07/14 11:23:24;;;;;;;2.10;1.17;;;;;;;;;;5040155;28;20651;-61
2023/07/14 11:25:56;;;;;;;4.17;1.40;;;;;;;;;;5040085;28;20203;-61
2023/07/14 11:28:31;;;;;;;1.47;1.30;;;;;;;;;;5039955;28;20221;-62
2023/07/14 11:31:01;;;;;;;2.50;1.83;;;;;;;;;;5043646;28;20211;-61
2023/07/14 11:33:34;;;;;;;11.67;6.83;;;;;;;;;;5059805;28;20249;-61
2023/07/14 11:36:03;;;;;;;11.30;7.33;;;;;;;;;;5059801;28;20209;-61
2023/07/14 11:38:35;;;;;;;1.90;1.43;;;;;;;;;;5059519;28;20294;-61
2023/07/14 11:41:03;;;;;;;2.40;1.10;;;;;;;;;;5056478;28;20231;-61
2023/07/14 11:43:31;;;;;;;1.20;1.10;;;;;;;;;;5039401;28;20675;-61
2023/07/14 11:46:02;;;;;;;1.90;1.35;;;;;;;;;;5039792;28;20217;-62
2023/07/14 11:48:37;;;;;;;1.88;1.10;;;;;;;;;;5039849;28;20211;-61
2023/07/14 11:51:07;;;;;;;1.38;1.13;;;;;;;;;;5039512;28;20264;-62
2023/07/14 11:53:36;;;;;;;2.03;1.50;;;;;;;;;;5039584;28;20234;-62
2023/07/14 11:56:25;;;;;;;2.85;1.50;;;;;;;;;;5050052;28;20203;-61
2023/07/14 11:59:06;;;;;;;1.45;1.27;;;;;;;;;;5049399;28;20221;-61
2023/07/14 12:01:43;;;;;;;1.58;1.42;;;;;;;;;;5043703;28;20242;-62
2023/07/14 12:04:22;;;;;;;2.75;1.63;;;;;;;;;;5039362;28;20291;-61
2023/07/14 12:06:51;;;;;;;2.42;1.10;;;;;;;;;;5038995;28;20216;-62
2023/07/14 12:09:19;;;;;;;1.95;1.50;;;;;;;;;;5039166;28;20321;-62
2023/07/14 12:12:04;;;;;;;4.03;1.45;;;;;;;;;;5039210;28;20234;-62
2023/07/14 12:14:48;;;;;;;2.75;1.30;;;;;;;;;;5038713;28;20205;-62
2023/07/14 12:17:34;;;;;;;4.05;2.05;;;;;;;;;;5037890;28;20611;-61
2023/07/14 12:20:15;;;;;;;1.77;1.40;;;;;;;;;;5039119;28;20284;-62
2023/07/14 12:22:44;;;;;;;1.92;1.63;;;;;;;;;;5038988;28;20225;-62
2023/07/14 12:25:13;;;;;;;3.13;2.08;;;;;;;;;;5038884;28;20216;-61
2023/07/14 12:27:44;;;;;;;1.38;1.27;;;;;;;;;;5038515;28;20294;-61
2023/07/14 12:30:17;;;;;;;2.15;1.48;;;;;;;;;;5038876;28;20317;-61
2023/07/14 12:32:45;;;;;;;0.95;0.93;;;;;;;;;;5038686;28;20256;-61
2023/07/14 12:35:14;;;;;;;2.78;1.33;;;;;;;;;;5038572;28;20208;-61
2023/07/14 12:37:46;;;;;;;1.77;1.15;;;;;;;;;;5038714;28;20658;-61
2023/07/14 12:40:14;;;;;;;4.15;1.27;;;;;;;;;;5044089;28;20268;-61
2023/07/14 12:42:43;;;;;;;2.10;1.02;;;;;;;;;;5038248;28;20204;-61
2023/07/14 12:45:12;;;;;;;1.67;1.10;;;;;;;;;;5038545;28;20235;-61
2023/07/14 12:47:41;;;;;;;1.17;0.90;;;;;;;;;;5038390;28;20649;-61
2023/07/14 12:50:15;;;;;;;3.53;1.55;;;;;;;;;;5038610;28;20287;-61
2023/07/14 12:52:44;;;;;;;1.20;1.10;;;;;;;;;;5038472;28;20294;-61
2023/07/14 12:55:13;;;;;;;2.53;1.10;;;;;;;;;;5042807;28;20265;-61
2023/07/14 12:57:41;;;;;;;2.03;1.05;;;;;;;;;;5038986;28;20290;-61
2023/07/14 13:00:20;;;;;;;1.15;1.00;;;;;;;;;;5043454;28;20227;-61
2023/07/14 13:02:48;;;;;;;2.47;1.10;;;;;;;;;;5038335;28;20297;-61
2023/07/14 13:05:16;;;;;;;1.85;1.30;;;;;;;;;;5038108;28;20230;-61
2023/07/14 13:07:47;;;;;;;1.30;1.20;;;;;;;;;;5038121;28;20215;-61
2023/07/14 13:10:17;;;;;;;2.45;1.20;;;;;;;;;;5038154;28;20231;-61
2023/07/14 13:12:45;;;;;;;1.17;1.00;;;;;;;;;;5037602;28;20643;-61
2023/07/14 13:15:14;;;;;;;2.13;1.02;;;;;;;;;;5038002;28;20210;-61
2023/07/14 13:17:42;;;;;;;1.48;1.30;;;;;;;;;;5038072;28;20211;-61
2023/07/14 13:20:11;;;;;;;1.27;0.88;;;;;;;;;;5037721;28;20237;-61
2023/07/14 13:22:38;;;;;;;1.20;1.10;;;;;;;;;;5037910;28;20208;-61
2023/07/14 13:25:09;;;;;;;2.65;1.08;;;;;;;;;;5038074;28;20215;-62
2023/07/14 13:27:37;;;;;;;1.15;1.05;;;;;;;;;;5037375;28;20243;-62
2023/07/14 13:30:18;;;;;;;1.10;1.00;;;;;;;;;;5037987;28;20696;-62
2023/07/14 13:32:49;;;;;;;1.05;0.82;;;;;;;;;;5037806;28;20325;-62
2023/07/14 13:35:20;;;;;;;1.42;1.15;;;;;;;;;;5037507;28;20651;-61
2023/07/14 13:37:48;;;;;;;3.17;1.20;;;;;;;;;;5037677;28;20209;-62
2023/07/14 13:40:21;;;;;;;1.40;1.10;;;;;;;;;;5040989;28;20231;-62
2023/07/14 13:42:50;;;;;;;1.33;1.23;;;;;;;;;;5037588;28;20227;-64
2023/07/14 13:45:20;;;;;;;1.35;1.10;;;;;;;;;;5037706;28;20286;-65
2023/07/14 13:47:50;;;;;;;1.58;1.17;;;;;;;;;;5037902;28;20207;-65
2023/07/14 13:50:18;;;;;;;2.40;1.00;;;;;;;;;;5037643;28;20233;-65
2023/07/14 13:52:46;;;;;;;1.30;1.20;;;;;;;;;;5037612;28;20643;-65
2023/07/14 13:55:16;;;;;;;1.60;1.20;;;;;;;;;;5039956;28;20205;-65
2023/07/14 13:57:45;;;;;;;1.48;1.40;;;;;;;;;;5052179;28;20226;-64
2023/07/14 14:00:19;;;;;;;2.40;1.05;;;;;;;;;;5052659;28;20290;-63
2023/07/14 14:02:48;;;;;;;1.55;1.40;;;;;;;;;;5039986;28;20226;-64
2023/07/14 14:05:18;;;;;;;2.42;1.30;;;;;;;;;;5056667;28;20230;-66
2023/07/14 14:07:46;;;;;;;1.50;1.40;;;;;;;;;;5056826;28;20199;-65
2023/07/14 14:10:15;;;;;;;2.10;1.17;;;;;;;;;;5039663;28;20223;-65
2023/07/14 14:12:43;;;;;;;4.15;1.40;;;;;;;;;;5036981;28;20207;-67
2023/07/14 14:15:15;;;;;;;5.82;1.30;;;;;;;;;;5037336;28;20245;-65
2023/07/14 14:17:43;;;;;;;1.25;1.08;;;;;;;;;;5037514;28;20298;-66
2023/07/14 14:20:14;;;;;;;1.30;1.20;;;;;;;;;;5037107;28;20237;-66
2023/07/14 14:22:41;;;;;;;1.33;1.20;;;;;;;;;;5037288;28;20314;-67
2023/07/14 14:25:13;;;;;;;1.08;0.98;;;;;;;;;;5037238;28;20219;-65
2023/07/14 14:27:41;;;;;;;1.77;1.20;;;;;;;;;;5037111;28;20242;-66
2023/07/14 14:30:10;;;;;;;2.47;1.50;;;;;;;;;;5037331;28;20235;-66
2023/07/14 14:32:39;;;;;;;2.97;1.13;;;;;;;;;;5037058;28;20273;-66
2023/07/14 14:35:17;;;;;;;1.63;1.25;;;;;;;;;;5037126;28;20641;-66
2023/07/14 14:37:45;;;;;;;1.20;1.10;;;;;;;;;;5037080;28;20207;-66
2023/07/14 14:40:13;;;;;;;1.38;1.10;;;;;;;;;;5046596;28;20222;-65
2023/07/14 14:42:41;;;;;;;1.45;1.35;;;;;;;;;;5042217;28;20223;-66
2023/07/14 14:45:11;;;;;;;1.60;1.30;;;;;;;;;;5040795;28;20214;-66
2023/07/14 14:47:40;;;;;;;1.40;1.30;;;;;;;;;;5044786;28;20206;-66
2023/07/14 14:50:10;;;;;;;2.03;1.33;;;;;;;;;;5040858;28;20245;-66
2023/07/14 14:52:38;;;;;;;1.17;1.08;;;;;;;;;;5040774;28;20204;-66
2023/07/14 14:55:06;;;;;;;2.50;1.23;;;;;;;;;;5042927;28;20222;-66
2023/07/14 14:57:34;;;;;;;3.53;2.17;;;;;;;;;;5050582;28;20745;-65
2023/07/14 15:00:05;;;;;;;1.25;1.15;;;;;;;;;;5048044;28;20246;-65